createdAt,value
2023-03-22T00:03:52.980Z,21.68
2023-03-22T00:07:52.865Z,21.69
2023-03-22T00:11:52.945Z,21.68
2023-03-22T00:15:53.067Z,21.68
2023-03-22T00:19:53.014Z,21.68
2023-03-22T00:23:53.066Z,21.68
2023-03-22T00:27:53.142Z,21.67
2023-03-22T00:31:53.268Z,21.66
2023-03-22T00:35:53.293Z,21.66
2023-03-22T00:39:53.341Z,21.66
2023-03-22T00:43:53.438Z,21.65
2023-03-22T00:47:53.544Z,21.65
2023-03-22T00:51:53.574Z,21.64
2023-03-22T00:55:53.640Z,21.64
2023-03-22T00:59:53.694Z,21.64
2023-03-22T01:03:53.824Z,21.63
2023-03-22T01:07:53.827Z,21.63
2023-03-22T01:11:53.872Z,21.62
2023-03-22T01:15:53.924Z,21.63
2023-03-22T01:19:53.965Z,21.62
2023-03-22T01:23:54.101Z,21.62
2023-03-22T01:27:54.197Z,21.62
2023-03-22T01:31:54.291Z,21.62
2023-03-22T01:35:54.439Z,21.62
2023-03-22T01:39:54.469Z,21.61
2023-03-22T01:43:54.532Z,21.61
2023-03-22T01:47:54.623Z,21.61
2023-03-22T01:51:54.718Z,21.59
2023-03-22T01:55:54.816Z,21.59
2023-03-22T01:59:54.960Z,21.58
2023-03-22T02:03:55.033Z,21.59
2023-03-22T02:07:55.113Z,21.57
2023-03-22T02:11:55.272Z,21.57
2023-03-22T02:15:55.440Z,21.56
2023-03-22T02:19:55.497Z,21.57
2023-03-22T02:23:55.630Z,21.56
2023-03-22T02:27:55.715Z,21.56
2023-03-22T02:31:55.879Z,21.55
2023-03-22T02:35:56.092Z,21.54
2023-03-22T02:39:56.115Z,21.54
2023-03-22T02:43:56.259Z,21.53
2023-03-22T02:47:57.216Z,21.53
2023-03-22T02:51:56.513Z,21.52
2023-03-22T02:55:56.673Z,21.52
2023-03-22T02:59:56.847Z,21.51
2023-03-22T03:03:57.028Z,21.52
2023-03-22T03:07:57.214Z,21.51
2023-03-22T03:11:57.326Z,21.50
2023-03-22T03:15:57.570Z,21.50
2023-03-22T03:19:57.680Z,21.51
2023-03-22T03:23:57.782Z,21.50
2023-03-22T03:27:57.968Z,21.50
2023-03-22T03:31:58.166Z,21.49
2023-03-22T03:35:58.349Z,21.50
2023-03-22T03:39:58.454Z,21.48
2023-03-22T03:43:58.652Z,21.47
2023-03-22T03:47:58.956Z,21.46
2023-03-22T03:51:58.989Z,21.47
2023-03-22T03:55:59.156Z,21.47
2023-03-22T03:59:59.344Z,21.46
2023-03-22T04:03:59.522Z,21.46
2023-03-22T04:07:59.727Z,21.45
2023-03-22T04:11:59.886Z,21.44
2023-03-22T04:16:00.095Z,21.44
2023-03-22T04:20:00.257Z,21.43
2023-03-22T04:24:00.480Z,21.43
2023-03-22T04:28:00.746Z,21.42
2023-03-22T04:32:00.597Z,21.43
2023-03-22T04:36:02.496Z,21.42
2023-03-22T04:40:00.490Z,21.41
2023-03-22T04:44:00.473Z,21.42
2023-03-22T04:48:00.461Z,21.41
2023-03-22T04:52:00.358Z,21.41
2023-03-22T04:56:00.341Z,21.40
2023-03-22T05:00:00.313Z,21.40
2023-03-22T05:04:00.296Z,21.41
2023-03-22T05:08:00.194Z,21.40
2023-03-22T05:12:00.200Z,21.40
2023-03-22T05:16:00.245Z,21.40
2023-03-22T05:20:00.266Z,21.39
2023-03-22T05:24:00.293Z,21.38
2023-03-22T05:28:00.130Z,21.37
2023-03-22T05:32:00.121Z,21.36
2023-03-22T05:36:00.015Z,21.37
2023-03-22T05:39:59.930Z,21.37
2023-03-22T05:43:59.855Z,21.38
2023-03-22T05:47:59.870Z,21.39
2023-03-22T05:51:59.755Z,21.36
2023-03-22T05:55:59.670Z,21.47
2023-03-22T05:59:59.647Z,21.58
2023-03-22T06:03:59.662Z,21.62
2023-03-22T06:07:59.682Z,21.61
2023-03-22T06:11:59.686Z,21.62
2023-03-22T06:15:59.678Z,21.66
2023-03-22T06:19:59.720Z,21.69
2023-03-22T06:23:59.679Z,21.69
2023-03-22T06:27:59.622Z,21.70
2023-03-22T06:31:59.584Z,21.74
2023-03-22T06:35:59.571Z,21.73
2023-03-22T06:39:59.754Z,21.70
2023-03-22T06:43:59.753Z,21.76
2023-03-22T06:47:59.778Z,21.74
2023-03-22T06:51:59.670Z,21.81
2023-03-22T06:55:59.756Z,21.80
2023-03-22T06:59:59.760Z,21.79
2023-03-22T07:03:59.667Z,21.84
2023-03-22T07:07:59.601Z,21.88
2023-03-22T07:11:59.777Z,21.88
2023-03-22T07:15:59.909Z,21.88
2023-03-22T07:19:59.448Z,21.89
2023-03-22T07:23:59.789Z,21.91
2023-03-22T07:27:59.503Z,21.91
2023-03-22T07:31:59.774Z,21.91
2023-03-22T07:35:59.513Z,21.92
2023-03-22T07:39:59.485Z,21.90
2023-03-22T07:44:11.444Z,21.89
2023-03-22T07:48:00.876Z,21.89
2023-03-22T07:51:59.783Z,22.05
2023-03-22T07:55:59.227Z,22.10
2023-03-22T07:59:59.321Z,22.03
2023-03-22T08:03:59.162Z,21.98
2023-03-22T08:07:59.050Z,21.98
2023-03-22T08:11:58.959Z,22.00
2023-03-22T08:15:59.285Z,22.00
2023-03-22T08:19:58.860Z,22.02
2023-03-22T08:23:58.765Z,22.03
2023-03-22T08:27:58.818Z,22.07
2023-03-22T08:31:58.861Z,22.08
2023-03-22T08:35:58.840Z,22.06
2023-03-22T08:39:58.417Z,22.08
2023-03-22T08:43:58.787Z,22.11
2023-03-22T08:47:58.379Z,22.13
2023-03-22T08:51:58.347Z,22.09
2023-03-22T08:55:58.332Z,22.09
2023-03-22T08:59:58.102Z,22.08
2023-03-22T09:03:58.339Z,22.09
2023-03-22T09:08:05.853Z,22.05
2023-03-22T09:11:58.975Z,22.07
2023-03-22T09:15:57.939Z,22.10
2023-03-22T09:20:11.397Z,22.12
2023-03-22T09:23:58.889Z,22.13
2023-03-22T09:27:57.819Z,22.14
2023-03-22T09:31:57.643Z,22.16
2023-03-22T09:35:57.557Z,22.19
2023-03-22T09:39:57.830Z,22.24
2023-03-22T09:43:57.819Z,22.28
2023-03-22T09:47:57.351Z,22.28
2023-03-22T09:51:57.295Z,22.34
2023-03-22T09:55:57.384Z,22.39
2023-03-22T09:59:57.075Z,22.37
2023-03-22T10:03:57.014Z,22.35
2023-03-22T10:07:57.317Z,22.36
2023-03-22T10:11:56.804Z,22.35
2023-03-22T10:15:56.796Z,22.32
2023-03-22T10:19:57.342Z,22.30
2023-03-22T10:23:57.053Z,22.34
2023-03-22T10:27:57.994Z,22.38
2023-03-22T10:31:57.309Z,22.37
2023-03-22T10:35:57.872Z,22.37
2023-03-22T10:39:57.842Z,22.37
2023-03-22T10:43:57.512Z,22.38
2023-03-22T10:47:57.887Z,22.43
2023-03-22T10:51:57.740Z,22.46
2023-03-22T10:55:59.438Z,22.49
2023-03-22T10:59:57.841Z,22.44
2023-03-22T11:03:58.089Z,22.39
2023-03-22T11:07:57.997Z,22.42
2023-03-22T11:11:58.057Z,22.42
2023-03-22T11:15:58.170Z,22.45
2023-03-22T11:19:58.225Z,22.45
2023-03-22T11:23:58.296Z,22.50
2023-03-22T11:27:58.298Z,22.51
2023-03-22T11:31:58.545Z,22.49
2023-03-22T11:35:58.477Z,22.48
2023-03-22T11:39:58.922Z,22.51
2023-03-22T11:43:58.887Z,22.58
2023-03-22T11:47:58.489Z,22.62
2023-03-22T11:51:58.309Z,22.58
2023-03-22T11:55:58.220Z,22.55
2023-03-22T11:59:58.167Z,22.54
2023-03-22T12:03:58.225Z,22.54
2023-03-22T12:07:58.049Z,22.54
2023-03-22T12:11:57.919Z,22.51
2023-03-22T12:15:57.866Z,22.55
2023-03-22T12:19:57.752Z,22.55
2023-03-22T12:23:57.617Z,22.68
2023-03-22T12:27:58.358Z,22.62
2023-03-22T12:31:57.949Z,22.63
2023-03-22T12:35:57.465Z,22.73
2023-03-22T12:39:57.423Z,22.75
2023-03-22T12:43:57.365Z,22.74
2023-03-22T12:47:57.528Z,22.73
2023-03-22T12:51:57.552Z,22.66
2023-03-22T12:55:57.541Z,22.69
2023-03-22T12:59:57.604Z,22.70
2023-03-22T13:03:57.745Z,22.65
2023-03-22T13:07:57.789Z,22.67
2023-03-22T13:11:57.791Z,22.68
2023-03-22T13:15:57.801Z,22.66
2023-03-22T13:19:57.821Z,22.70
2023-03-22T13:23:57.909Z,22.72
2023-03-22T13:28:06.887Z,22.78
2023-03-22T13:31:57.851Z,22.80
2023-03-22T13:35:57.802Z,22.79
2023-03-22T13:39:57.635Z,22.78
2023-03-22T13:43:57.502Z,22.75
2023-03-22T13:47:57.552Z,22.75
2023-03-22T13:51:57.362Z,22.77
2023-03-22T13:55:57.278Z,22.77
2023-03-22T14:00:09.429Z,22.70
2023-03-22T14:03:58.194Z,22.61
2023-03-22T14:07:57.066Z,22.57
2023-03-22T14:11:57.271Z,22.55
2023-03-22T14:15:56.952Z,22.55
2023-03-22T14:19:56.750Z,22.50
2023-03-22T14:48:57.414Z,22.49
2023-03-22T14:52:57.383Z,22.51
2023-03-22T14:56:57.437Z,22.57
2023-03-22T15:00:57.462Z,22.57
2023-03-22T15:04:57.506Z,22.59
2023-03-22T15:08:57.469Z,22.54
2023-03-22T15:12:57.515Z,22.47
2023-03-22T15:16:57.498Z,22.48
2023-03-22T15:20:57.537Z,22.46
2023-03-22T15:24:57.569Z,22.38
2023-03-22T15:28:57.658Z,22.30
2023-03-22T15:32:57.812Z,22.30
2023-03-22T15:36:57.959Z,22.28
2023-03-22T15:40:58.120Z,22.24
2023-03-22T15:44:58.193Z,22.23
2023-03-22T15:48:58.254Z,22.26
2023-03-22T15:52:58.300Z,22.24
2023-03-22T15:56:58.365Z,22.20
2023-03-22T16:00:58.436Z,22.18
2023-03-22T16:04:58.481Z,22.15
2023-03-22T16:08:58.584Z,22.14
2023-03-22T16:12:58.654Z,22.13
2023-03-22T16:16:58.775Z,22.13
2023-03-22T16:20:58.787Z,22.08
2023-03-22T16:24:58.837Z,22.03
2023-03-22T16:28:58.902Z,22.02
2023-03-22T16:32:58.990Z,22.04
2023-03-22T16:36:59.139Z,22.04
2023-03-22T16:40:59.239Z,22.03
2023-03-22T16:44:59.303Z,22.04
2023-03-22T16:48:59.411Z,21.96
2023-03-22T16:52:59.494Z,21.96
2023-03-22T16:56:59.608Z,22.01
2023-03-22T17:00:59.721Z,21.99
2023-03-22T17:04:59.826Z,21.94
2023-03-22T17:08:59.886Z,21.95
2023-03-22T17:12:59.978Z,21.98
2023-03-22T17:17:00.107Z,22.00
2023-03-22T17:21:00.161Z,21.94
2023-03-22T17:25:00.326Z,21.95
2023-03-22T17:29:00.416Z,21.98
2023-03-22T17:33:01.851Z,22.00
2023-03-22T17:37:00.708Z,21.97
2023-03-22T17:41:02.514Z,21.97
2023-03-22T17:45:00.944Z,21.99
2023-03-22T17:49:01.041Z,21.97
2023-03-22T17:53:01.158Z,21.94
2023-03-22T17:57:27.880Z,21.94
2023-03-22T18:01:01.315Z,21.95
2023-03-22T18:05:01.308Z,21.97
2023-03-22T18:09:01.367Z,21.99
2023-03-22T18:13:01.503Z,22.03
2023-03-22T18:17:01.772Z,22.05
2023-03-22T18:21:02.098Z,22.06
2023-03-22T18:25:02.155Z,22.07
2023-03-22T18:29:02.362Z,22.08
2023-03-22T18:33:06.079Z,22.09
2023-03-22T18:37:02.605Z,22.09
2023-03-22T18:41:31.581Z,22.10
2023-03-22T18:45:04.077Z,22.09
2023-03-22T18:49:02.605Z,22.10
2023-03-22T18:53:16.221Z,22.10
2023-03-22T18:57:03.660Z,22.10
2023-03-22T19:01:02.781Z,22.10
2023-03-22T19:05:02.766Z,22.10
2023-03-22T19:09:02.995Z,22.09
2023-03-22T19:13:03.190Z,22.10
2023-03-22T19:17:03.386Z,22.09
2023-03-22T19:21:11.783Z,22.09
2023-03-22T19:25:04.652Z,22.10
2023-03-22T19:29:03.677Z,22.09
2023-03-22T19:33:27.567Z,22.09
2023-03-22T19:37:04.736Z,22.09
2023-03-22T19:41:39.370Z,22.09
2023-03-22T19:45:04.778Z,22.09
2023-03-22T19:49:03.774Z,22.09
2023-03-22T19:53:26.067Z,22.08
2023-03-22T19:57:04.889Z,22.08
2023-03-22T20:01:04.491Z,22.08
2023-03-22T20:05:11.396Z,22.07
2023-03-22T20:09:05.124Z,22.06
2023-03-22T20:13:04.145Z,22.06
2023-03-22T20:17:06.880Z,22.07
2023-03-22T20:21:04.340Z,22.05
2023-03-22T20:25:04.362Z,22.06
2023-03-22T20:29:04.388Z,22.05
2023-03-22T20:33:04.410Z,22.05
2023-03-22T20:37:04.466Z,22.04
2023-03-22T20:41:04.637Z,22.05
2023-03-22T20:45:04.905Z,22.05
2023-03-22T20:49:05.172Z,22.04
2023-03-22T20:53:05.441Z,22.02
2023-03-22T20:57:05.737Z,22.03
2023-03-22T21:01:06.017Z,22.02
2023-03-22T21:05:06.232Z,22.02
2023-03-22T21:09:06.451Z,22.03
2023-03-22T21:13:06.694Z,22.02
2023-03-22T21:17:06.981Z,22.02
2023-03-22T21:21:07.213Z,22.01
2023-03-22T21:25:07.467Z,22.01
2023-03-22T21:29:07.771Z,22.01
2023-03-22T21:33:08.061Z,22.01
2023-03-22T21:37:08.284Z,22.01
2023-03-22T21:41:08.296Z,22.01
2023-03-22T21:45:08.347Z,22.00
2023-03-22T21:49:08.334Z,22.00
2023-03-22T21:53:08.331Z,21.99
2023-03-22T21:57:08.368Z,21.99
2023-03-22T22:01:08.405Z,21.99
2023-03-22T22:05:08.378Z,21.99
2023-03-22T22:09:08.374Z,21.99
2023-03-22T22:13:08.413Z,21.98
2023-03-22T22:17:08.414Z,21.99
2023-03-22T22:21:08.424Z,21.98
2023-03-22T22:25:08.516Z,21.98
2023-03-22T22:29:08.429Z,21.98
2023-03-22T22:33:08.467Z,21.97
2023-03-22T22:37:08.459Z,21.96
2023-03-22T22:41:08.445Z,21.97
2023-03-22T22:45:08.490Z,21.96
2023-03-22T22:49:08.472Z,21.96
2023-03-22T22:53:08.495Z,21.95
2023-03-22T22:57:08.736Z,21.94
2023-03-22T23:01:08.568Z,21.94
2023-03-22T23:05:08.622Z,21.94
2023-03-22T23:09:08.609Z,21.93
2023-03-22T23:13:08.643Z,21.92
2023-03-22T23:17:08.672Z,21.92
2023-03-22T23:21:08.609Z,21.92
2023-03-22T23:25:08.655Z,21.92
2023-03-22T23:29:08.656Z,21.92
2023-03-22T23:33:08.660Z,21.92
2023-03-22T23:37:08.829Z,21.91
2023-03-22T23:41:08.813Z,21.89
2023-03-22T23:45:08.864Z,21.89
2023-03-22T23:49:08.872Z,21.90
2023-03-22T23:53:08.890Z,21.89
2023-03-22T23:57:08.888Z,21.89
